createdAt,value
2023-06-03T00:00:15.393Z,94570.00
2023-06-03T00:01:15.480Z,94570.00
2023-06-03T00:02:15.524Z,94568.00
2023-06-03T00:03:15.568Z,94574.00
2023-06-03T00:04:15.583Z,94576.00
2023-06-03T00:05:15.573Z,94576.00
2023-06-03T00:06:15.626Z,94576.00
2023-06-03T00:07:15.661Z,94576.00
2023-06-03T00:08:15.695Z,94576.00
2023-06-03T00:09:15.728Z,94582.00
2023-06-03T00:10:15.765Z,94582.00
2023-06-03T00:11:15.818Z,94582.00
2023-06-03T00:12:15.851Z,94582.00
2023-06-03T00:13:15.875Z,94584.00
2023-06-03T00:14:15.911Z,94586.00
2023-06-03T00:15:15.959Z,94586.00
2023-06-03T00:16:15.986Z,94586.00
2023-06-03T00:17:15.996Z,94586.00
2023-06-03T00:18:16.008Z,94586.00
2023-06-03T00:19:16.027Z,94586.00
2023-06-03T00:20:16.062Z,94584.00
2023-06-03T00:21:16.093Z,94584.00
2023-06-03T00:22:16.151Z,94584.00
2023-06-03T00:23:16.172Z,94586.00
2023-06-03T00:24:16.198Z,94586.00
2023-06-03T00:25:16.223Z,94586.00
2023-06-03T00:26:16.276Z,94584.00
2023-06-03T00:27:16.343Z,94588.00
2023-06-03T00:28:16.389Z,94582.00
2023-06-03T00:29:16.446Z,94578.00
2023-06-03T00:30:16.480Z,94584.00
2023-06-03T00:31:16.574Z,94580.00
2023-06-03T00:32:16.598Z,94580.00
2023-06-03T00:33:16.750Z,94580.00
2023-06-03T00:34:16.742Z,94582.00
2023-06-03T00:35:16.781Z,94580.00
2023-06-03T00:36:16.834Z,94580.00
2023-06-03T00:37:16.874Z,94582.00
2023-06-03T00:38:16.960Z,94582.00
2023-06-03T00:39:16.984Z,94588.00
2023-06-03T00:40:17.042Z,94584.00
2023-06-03T00:41:17.093Z,94586.00
2023-06-03T00:42:17.156Z,94586.00
2023-06-03T00:43:17.223Z,94588.00
2023-06-03T00:44:17.295Z,94590.00
2023-06-03T00:45:17.341Z,94586.00
2023-06-03T00:46:17.503Z,94590.00
2023-06-03T00:47:17.471Z,94590.00
2023-06-03T00:48:17.521Z,94590.00
2023-06-03T00:49:17.578Z,94588.00
2023-06-03T00:50:17.641Z,94590.00
2023-06-03T00:51:17.698Z,94592.00
2023-06-03T00:52:17.785Z,94590.00
2023-06-03T00:53:17.820Z,94592.00
2023-06-03T00:54:17.855Z,94590.00
2023-06-03T00:55:17.910Z,94592.00
2023-06-03T00:56:17.964Z,94590.00
2023-06-03T00:57:18.008Z,94592.00
2023-06-03T00:58:18.042Z,94594.00
2023-06-03T00:59:18.078Z,94588.00
2023-06-03T01:00:18.105Z,94594.00
2023-06-03T01:01:18.177Z,94596.00
2023-06-03T01:02:18.214Z,94598.00
2023-06-03T01:03:18.298Z,94596.00
2023-06-03T01:04:18.275Z,94596.00
2023-06-03T01:05:18.245Z,94599.00
2023-06-03T01:06:18.261Z,94599.00
2023-06-03T01:07:18.283Z,94601.00
2023-06-03T01:08:18.297Z,94599.00
2023-06-03T01:09:18.322Z,94598.00
2023-06-03T01:10:18.331Z,94596.00
2023-06-03T01:11:18.359Z,94598.00
2023-06-03T01:12:18.371Z,94596.00
2023-06-03T01:13:18.388Z,94596.00
2023-06-03T01:14:18.392Z,94596.00
2023-06-03T01:15:18.430Z,94598.00
2023-06-03T01:16:18.499Z,94598.00
2023-06-03T01:17:18.467Z,94599.00
2023-06-03T01:18:18.446Z,94596.00
2023-06-03T01:19:18.470Z,94598.00
2023-06-03T01:20:18.468Z,94596.00
2023-06-03T01:21:18.485Z,94596.00
2023-06-03T01:22:18.513Z,94596.00
2023-06-03T01:23:18.543Z,94596.00
2023-06-03T01:24:18.524Z,94592.00
2023-06-03T01:25:18.513Z,94594.00
2023-06-03T01:26:18.529Z,94592.00
2023-06-03T01:27:18.565Z,94590.00
2023-06-03T01:28:18.571Z,94588.00
2023-06-03T01:29:18.540Z,94588.00
2023-06-03T01:30:18.565Z,94590.00
2023-06-03T01:31:18.619Z,94588.00
2023-06-03T01:32:18.583Z,94590.00
2023-06-03T01:33:18.575Z,94590.00
2023-06-03T01:34:18.572Z,94590.00
2023-06-03T01:35:18.584Z,94592.00
2023-06-03T01:36:18.600Z,94590.00
2023-06-03T01:37:18.585Z,94592.00
2023-06-03T01:38:18.602Z,94590.00
2023-06-03T01:39:18.616Z,94590.00
2023-06-03T01:40:18.595Z,94590.00
2023-06-03T01:41:18.606Z,94588.00
2023-06-03T01:42:18.650Z,94590.00
2023-06-03T01:43:18.640Z,94590.00
2023-06-03T01:44:18.656Z,94590.00
2023-06-03T01:45:18.700Z,94592.00
2023-06-03T01:46:18.727Z,94592.00
2023-06-03T01:47:18.730Z,94590.00
2023-06-03T01:48:18.765Z,94590.00
2023-06-03T01:49:18.809Z,94592.00
2023-06-03T01:50:18.833Z,94590.00
2023-06-03T01:51:18.863Z,94590.00
2023-06-03T01:52:18.900Z,94590.00
2023-06-03T01:53:18.928Z,94588.00
2023-06-03T01:54:18.984Z,94588.00
2023-06-03T01:55:18.990Z,94586.00
2023-06-03T01:56:19.056Z,94584.00
2023-06-03T01:57:19.046Z,94582.00
2023-06-03T01:58:19.061Z,94580.00
2023-06-03T01:59:19.099Z,94582.00
2023-06-03T02:00:19.120Z,94580.00
2023-06-03T02:01:19.176Z,94582.00
2023-06-03T02:02:19.248Z,94580.00
2023-06-03T02:03:19.237Z,94580.00
2023-06-03T02:04:19.226Z,94580.00
2023-06-03T02:05:19.248Z,94580.00
2023-06-03T02:06:19.818Z,94586.00
2023-06-03T02:07:19.262Z,94586.00
2023-06-03T02:08:19.297Z,94586.00
2023-06-03T02:09:19.284Z,94586.00
2023-06-03T02:10:19.320Z,94588.00
2023-06-03T02:11:19.321Z,94590.00
2023-06-03T02:12:19.334Z,94586.00
2023-06-03T02:13:19.374Z,94590.00
2023-06-03T02:14:19.412Z,94588.00
2023-06-03T02:15:19.448Z,94592.00
2023-06-03T02:16:19.553Z,94588.00
2023-06-03T02:17:19.533Z,94594.00
2023-06-03T02:18:19.586Z,94594.00
2023-06-03T02:19:19.620Z,94590.00
2023-06-03T02:20:19.614Z,94588.00
2023-06-03T02:21:19.597Z,94588.00
2023-06-03T02:22:19.631Z,94586.00
2023-06-03T02:23:19.648Z,94588.00
2023-06-03T02:24:19.581Z,94588.00
2023-06-03T02:25:19.578Z,94590.00
2023-06-03T02:26:19.567Z,94590.00
2023-06-03T02:27:19.573Z,94588.00
2023-06-03T02:28:19.557Z,94590.00
2023-06-03T02:29:19.552Z,94588.00
2023-06-03T02:30:19.542Z,94588.00
2023-06-03T02:31:19.595Z,94590.00
2023-06-03T02:32:19.538Z,94588.00
2023-06-03T02:33:19.522Z,94590.00
2023-06-03T02:34:19.523Z,94588.00
2023-06-03T02:35:19.518Z,94588.00
2023-06-03T02:36:19.512Z,94590.00
2023-06-03T02:37:19.506Z,94588.00
2023-06-03T02:38:19.505Z,94588.00
2023-06-03T02:39:19.534Z,94590.00
2023-06-03T02:40:19.599Z,94590.00
2023-06-03T02:41:19.667Z,94590.00
2023-06-03T02:42:19.723Z,94588.00
2023-06-03T02:43:19.782Z,94594.00
2023-06-03T02:44:19.841Z,94594.00
2023-06-03T02:45:19.885Z,94594.00
2023-06-03T02:46:19.961Z,94596.00
2023-06-03T02:47:20.037Z,94594.00
2023-06-03T02:48:20.045Z,94596.00
2023-06-03T02:49:20.119Z,94596.00
2023-06-03T02:50:20.157Z,94599.00
2023-06-03T02:51:20.225Z,94601.00
2023-06-03T02:52:20.290Z,94603.00
2023-06-03T02:53:20.332Z,94603.00
2023-06-03T02:54:20.376Z,94605.00
2023-06-03T02:55:20.433Z,94603.00
2023-06-03T02:56:20.510Z,94609.00
2023-06-03T02:57:20.540Z,94609.00
2023-06-03T02:58:20.594Z,94611.00
2023-06-03T02:59:20.692Z,94613.00
2023-06-03T03:00:20.733Z,94613.00
2023-06-03T03:01:20.800Z,94615.00
2023-06-03T03:02:20.890Z,94615.00
2023-06-03T03:03:21.021Z,94619.00
2023-06-03T03:04:20.925Z,94621.00
2023-06-03T03:05:20.983Z,94623.00
2023-06-03T03:06:21.017Z,94621.00
2023-06-03T03:07:21.111Z,94621.00
2023-06-03T03:08:21.141Z,94623.00
2023-06-03T03:09:21.183Z,94623.00
2023-06-03T03:10:21.251Z,94625.00
2023-06-03T03:11:21.290Z,94627.00
2023-06-03T03:12:21.357Z,94625.00
2023-06-03T03:13:21.383Z,94631.00
2023-06-03T03:14:21.450Z,94631.00
2023-06-03T03:15:21.493Z,94631.00
2023-06-03T03:16:21.576Z,94631.00
2023-06-03T03:17:21.623Z,94629.00
2023-06-03T03:18:21.641Z,94629.00
2023-06-03T03:19:21.699Z,94629.00
2023-06-03T03:20:21.745Z,94631.00
2023-06-03T03:21:21.930Z,94631.00
2023-06-03T03:22:21.870Z,94631.00
2023-06-03T03:23:21.946Z,94635.00
2023-06-03T03:24:21.998Z,94633.00
2023-06-03T03:25:22.063Z,94633.00
2023-06-03T03:26:22.084Z,94633.00
2023-06-03T03:27:22.157Z,94635.00
2023-06-03T03:28:22.181Z,94635.00
2023-06-03T03:29:22.225Z,94635.00
2023-06-03T03:30:22.283Z,94633.00
2023-06-03T03:31:22.385Z,94635.00
2023-06-03T03:32:22.448Z,94635.00
2023-06-03T03:33:22.439Z,94635.00
2023-06-03T03:34:22.481Z,94637.00
2023-06-03T03:35:22.557Z,94637.00
2023-06-03T03:36:22.587Z,94637.00
2023-06-03T03:37:22.672Z,94637.00
2023-06-03T03:38:22.682Z,94635.00
2023-06-03T03:39:22.725Z,94635.00
2023-06-03T03:40:22.782Z,94641.00
2023-06-03T03:41:22.825Z,94639.00
2023-06-03T03:42:22.886Z,94639.00
2023-06-03T03:43:22.923Z,94639.00
2023-06-03T03:44:22.983Z,94639.00
2023-06-03T03:45:23.032Z,94641.00
2023-06-03T03:46:23.160Z,94641.00
2023-06-03T03:47:23.251Z,94643.00
2023-06-03T03:48:23.169Z,94641.00
2023-06-03T03:49:23.209Z,94641.00
2023-06-03T03:50:23.259Z,94641.00
2023-06-03T03:51:23.321Z,94643.00
2023-06-03T03:52:25.511Z,94643.00
2023-06-03T03:53:23.368Z,94641.00
2023-06-03T03:54:23.344Z,94639.00
2023-06-03T03:55:23.339Z,94639.00
2023-06-03T03:56:23.530Z,94639.00
2023-06-03T03:57:23.333Z,94637.00
2023-06-03T03:58:23.320Z,94639.00
2023-06-03T03:59:23.324Z,94641.00
2023-06-03T04:00:23.324Z,94643.00
2023-06-03T04:01:23.453Z,94643.00
2023-06-03T04:02:23.379Z,94641.00
2023-06-03T04:03:23.351Z,94652.00
2023-06-03T04:04:23.333Z,94645.00
2023-06-03T04:05:23.283Z,94643.00
2023-06-03T04:06:23.272Z,94643.00
2023-06-03T04:07:23.268Z,94645.00
2023-06-03T04:08:23.261Z,94645.00
2023-06-03T04:09:23.252Z,94645.00
2023-06-03T04:10:23.267Z,94641.00
2023-06-03T04:11:23.246Z,94645.00
2023-06-03T04:12:23.234Z,94643.00
2023-06-03T04:13:23.276Z,94641.00
2023-06-03T04:14:23.213Z,94641.00
2023-06-03T04:15:23.211Z,94645.00
2023-06-03T04:16:23.281Z,94643.00
2023-06-03T04:17:23.256Z,94643.00
2023-06-03T04:18:23.222Z,94645.00
2023-06-03T04:19:23.277Z,94652.00
2023-06-03T04:20:23.320Z,94652.00
2023-06-03T04:21:23.382Z,94645.00
2023-06-03T04:22:23.432Z,94643.00
2023-06-03T04:23:23.536Z,94641.00
2023-06-03T04:24:23.523Z,94643.00
2023-06-03T04:25:23.595Z,94643.00
2023-06-03T04:26:23.646Z,94639.00
2023-06-03T04:27:23.706Z,94641.00
2023-06-03T04:28:23.764Z,94643.00
2023-06-03T04:29:23.817Z,94643.00
2023-06-03T04:30:23.878Z,94641.00
2023-06-03T04:31:23.965Z,94639.00
2023-06-03T04:32:24.039Z,94639.00
2023-06-03T04:33:24.039Z,94639.00
2023-06-03T04:34:24.100Z,94639.00
2023-06-03T04:35:24.155Z,94639.00
2023-06-03T04:36:24.193Z,94639.00
2023-06-03T04:37:24.242Z,94635.00
2023-06-03T04:38:24.288Z,94635.00
2023-06-03T04:39:24.339Z,94633.00
2023-06-03T04:40:24.406Z,94635.00
2023-06-03T04:41:24.444Z,94633.00
2023-06-03T04:42:24.523Z,94635.00
2023-06-03T04:43:24.557Z,94637.00
2023-06-03T04:44:24.605Z,94635.00
2023-06-03T04:45:24.683Z,94635.00
2023-06-03T04:46:24.761Z,94635.00
2023-06-03T04:47:24.828Z,94635.00
2023-06-03T04:48:24.814Z,94637.00
2023-06-03T04:49:24.866Z,94637.00
2023-06-03T04:50:24.918Z,94637.00
2023-06-03T04:51:24.970Z,94635.00
2023-06-03T04:52:25.023Z,94637.00
2023-06-03T04:53:25.082Z,94635.00
2023-06-03T04:54:25.260Z,94635.00
2023-06-03T04:55:25.182Z,94639.00
2023-06-03T04:56:25.230Z,94635.00
2023-06-03T04:57:25.285Z,94635.00
2023-06-03T04:58:25.330Z,94635.00
2023-06-03T04:59:25.371Z,94635.00
2023-06-03T05:00:25.421Z,94635.00
2023-06-03T05:01:25.484Z,94637.00
2023-06-03T05:02:25.531Z,94637.00
2023-06-03T05:03:25.676Z,94631.00
2023-06-03T05:04:25.595Z,94633.00
2023-06-03T05:05:25.640Z,94631.00
2023-06-03T05:06:25.686Z,94629.00
2023-06-03T05:07:25.759Z,94627.00
2023-06-03T05:08:25.785Z,94627.00
2023-06-03T05:09:25.847Z,94629.00
2023-06-03T05:10:25.903Z,94627.00
2023-06-03T05:11:25.923Z,94623.00
2023-06-03T05:12:25.976Z,94625.00
2023-06-03T05:13:26.030Z,94623.00
2023-06-03T05:14:26.084Z,94623.00
2023-06-03T05:15:26.117Z,94623.00
2023-06-03T05:16:26.205Z,94623.00
2023-06-03T05:17:26.229Z,94621.00
2023-06-03T05:18:26.284Z,94623.00
2023-06-03T05:19:26.328Z,94621.00
2023-06-03T05:20:26.362Z,94619.00
2023-06-03T05:21:26.405Z,94623.00
2023-06-03T05:22:26.450Z,94619.00
2023-06-03T05:23:26.519Z,94621.00
2023-06-03T05:24:26.539Z,94621.00
2023-06-03T05:25:26.621Z,94621.00
2023-06-03T05:26:26.648Z,94619.00
2023-06-03T05:27:26.683Z,94621.00
2023-06-03T05:28:26.725Z,94619.00
2023-06-03T05:29:26.777Z,94619.00
2023-06-03T05:30:26.820Z,94621.00
2023-06-03T05:31:26.894Z,94621.00
2023-06-03T05:32:26.965Z,94619.00
2023-06-03T05:33:26.984Z,94619.00
2023-06-03T05:34:27.037Z,94613.00
2023-06-03T05:35:27.104Z,94615.00
2023-06-03T05:36:27.145Z,94615.00
2023-06-03T05:37:27.227Z,94613.00
2023-06-03T05:38:27.260Z,94615.00
2023-06-03T05:39:27.317Z,94613.00
2023-06-03T05:40:27.353Z,94613.00
2023-06-03T05:41:27.390Z,94611.00
2023-06-03T05:42:27.432Z,94611.00
2023-06-03T05:43:27.488Z,94609.00
2023-06-03T05:44:27.524Z,94609.00
2023-06-03T05:45:27.563Z,94613.00
2023-06-03T05:46:27.709Z,94613.00
2023-06-03T05:47:27.724Z,94615.00
2023-06-03T05:48:27.703Z,94615.00
2023-06-03T05:49:27.735Z,94617.00
2023-06-03T05:50:27.780Z,94615.00
2023-06-03T05:51:27.827Z,94613.00
2023-06-03T05:52:27.877Z,94613.00
2023-06-03T05:53:27.906Z,94611.00
2023-06-03T05:54:27.949Z,94611.00
2023-06-03T05:55:27.989Z,94609.00
2023-06-03T05:56:28.066Z,94609.00
2023-06-03T05:57:28.100Z,94605.00
2023-06-03T05:58:28.161Z,94607.00
2023-06-03T05:59:28.164Z,94607.00
2023-06-03T06:00:28.223Z,94607.00
2023-06-03T06:01:28.257Z,94605.00
2023-06-03T06:02:28.355Z,94611.00
2023-06-03T06:03:28.448Z,94607.00
2023-06-03T06:04:28.439Z,94605.00
2023-06-03T06:05:28.460Z,94609.00
2023-06-03T06:06:28.513Z,94609.00
2023-06-03T06:07:28.581Z,94609.00
2023-06-03T06:08:28.641Z,94609.00
2023-06-03T06:09:28.690Z,94609.00
2023-06-03T06:10:28.792Z,94605.00
2023-06-03T06:11:28.802Z,94607.00
2023-06-03T06:12:28.876Z,94607.00
2023-06-03T06:13:28.925Z,94605.00
2023-06-03T06:14:29.074Z,94605.00
2023-06-03T06:15:29.143Z,94603.00
2023-06-03T06:16:29.115Z,94605.00
2023-06-03T06:17:29.294Z,94605.00
2023-06-03T06:18:29.206Z,94605.00
2023-06-03T06:19:29.210Z,94605.00
2023-06-03T06:20:29.238Z,94607.00
2023-06-03T06:21:29.289Z,94607.00
2023-06-03T06:22:29.325Z,94605.00
2023-06-03T06:23:29.482Z,94605.00
2023-06-03T06:24:29.377Z,94609.00
2023-06-03T06:25:29.412Z,94607.00
2023-06-03T06:26:29.472Z,94607.00
2023-06-03T06:27:29.496Z,94605.00
2023-06-03T06:28:29.542Z,94605.00
2023-06-03T06:29:29.555Z,94607.00
2023-06-03T06:30:29.598Z,94607.00
2023-06-03T06:31:29.652Z,94605.00
2023-06-03T06:32:29.723Z,94603.00
2023-06-03T06:33:29.717Z,94603.00
2023-06-03T06:34:29.732Z,94605.00
2023-06-03T06:35:29.805Z,94601.00
2023-06-03T06:36:29.820Z,94601.00
2023-06-03T06:37:29.858Z,94601.00
2023-06-03T06:38:29.897Z,94599.00
2023-06-03T06:39:29.960Z,94598.00
2023-06-03T06:40:30.007Z,94599.00
2023-06-03T06:41:30.059Z,94598.00
2023-06-03T06:42:30.121Z,94598.00
2023-06-03T06:43:30.931Z,94598.00
2023-06-03T06:44:30.227Z,94598.00
2023-06-03T06:45:30.363Z,94599.00
2023-06-03T06:46:30.575Z,94596.00
2023-06-03T06:47:30.367Z,94596.00
2023-06-03T06:48:30.389Z,94594.00
2023-06-03T06:49:30.439Z,94596.00
2023-06-03T06:50:30.497Z,94594.00
2023-06-03T06:51:30.535Z,94594.00
2023-06-03T06:52:30.602Z,94594.00
2023-06-03T06:53:30.634Z,94594.00
2023-06-03T06:54:30.676Z,94592.00
2023-06-03T06:55:30.712Z,94592.00
2023-06-03T06:56:30.754Z,94592.00
2023-06-03T06:57:30.797Z,94588.00
2023-06-03T06:58:30.833Z,94590.00
2023-06-03T06:59:30.865Z,94584.00
2023-06-03T07:00:30.905Z,94584.00
2023-06-03T07:01:30.980Z,94584.00
2023-06-03T07:02:31.036Z,94584.00
2023-06-03T07:03:31.069Z,94586.00
2023-06-03T07:04:31.051Z,94586.00
2023-06-03T07:05:31.086Z,94582.00
2023-06-03T07:06:31.128Z,94582.00
2023-06-03T07:07:31.170Z,94580.00
2023-06-03T07:08:31.202Z,94582.00
2023-06-03T07:09:31.249Z,94578.00
2023-06-03T07:10:31.285Z,94578.00
2023-06-03T07:11:31.316Z,94574.00
2023-06-03T07:12:31.340Z,94574.00
2023-06-03T07:13:31.376Z,94574.00
2023-06-03T07:14:31.412Z,94574.00
2023-06-03T07:15:31.443Z,94572.00
2023-06-03T07:16:31.519Z,94568.00
2023-06-03T07:17:31.608Z,94566.00
2023-06-03T07:18:31.548Z,94566.00
2023-06-03T07:19:31.580Z,94566.00
2023-06-03T07:20:31.613Z,94562.00
2023-06-03T07:21:31.639Z,94562.00
2023-06-03T07:22:31.668Z,94562.00
2023-06-03T07:23:31.783Z,94558.00
2023-06-03T07:24:31.850Z,94558.00
2023-06-03T07:25:31.760Z,94558.00
2023-06-03T07:26:31.784Z,94558.00
2023-06-03T07:27:31.820Z,94558.00
2023-06-03T07:28:31.866Z,94558.00
2023-06-03T07:29:31.873Z,94554.00
2023-06-03T07:30:31.916Z,94552.00
2023-06-03T07:31:31.988Z,94554.00
2023-06-03T07:32:32.015Z,94551.00
2023-06-03T07:33:32.005Z,94551.00
2023-06-03T07:34:32.025Z,94549.00
2023-06-03T07:35:32.048Z,94545.00
2023-06-03T07:36:32.059Z,94547.00
2023-06-03T07:37:32.093Z,94547.00
2023-06-03T07:38:32.118Z,94547.00
2023-06-03T07:39:32.151Z,94545.00
2023-06-03T07:40:32.176Z,94543.00
2023-06-03T07:41:32.211Z,94545.00
2023-06-03T07:42:32.227Z,94543.00
2023-06-03T07:43:32.239Z,94543.00
2023-06-03T07:44:32.259Z,94541.00
2023-06-03T07:45:32.274Z,94537.00
2023-06-03T07:46:32.370Z,94539.00
2023-06-03T07:47:32.376Z,94537.00
2023-06-03T07:48:32.348Z,94541.00
2023-06-03T07:49:32.370Z,94537.00
2023-06-03T07:50:32.390Z,94537.00
2023-06-03T07:51:32.423Z,94539.00
2023-06-03T07:52:32.417Z,94539.00
2023-06-03T07:53:34.452Z,94537.00
2023-06-03T07:54:32.455Z,94537.00
2023-06-03T07:55:32.450Z,94535.00
2023-06-03T07:56:32.482Z,94535.00
2023-06-03T07:57:32.506Z,94533.00
2023-06-03T07:58:32.524Z,94531.00
2023-06-03T07:59:32.555Z,94529.00
2023-06-03T08:00:32.557Z,94527.00
2023-06-03T08:01:32.584Z,94529.00
2023-06-03T08:02:32.702Z,94529.00
2023-06-03T08:03:32.677Z,94529.00
2023-06-03T08:04:32.656Z,94527.00
2023-06-03T08:05:32.681Z,94525.00
2023-06-03T08:06:32.710Z,94525.00
2023-06-03T08:07:32.704Z,94523.00
2023-06-03T08:08:32.718Z,94523.00
2023-06-03T08:09:32.720Z,94523.00
2023-06-03T08:10:32.762Z,94523.00
2023-06-03T08:11:32.760Z,94523.00
2023-06-03T08:12:32.777Z,94521.00
2023-06-03T08:13:32.799Z,94521.00
2023-06-03T08:14:32.816Z,94521.00
2023-06-03T08:15:32.861Z,94521.00
2023-06-03T08:16:32.912Z,94519.00
2023-06-03T08:17:32.887Z,94521.00
2023-06-03T08:18:32.893Z,94517.00
2023-06-03T08:19:32.906Z,94515.00
2023-06-03T08:20:32.902Z,94515.00
2023-06-03T08:21:32.926Z,94515.00
2023-06-03T08:22:32.939Z,94511.00
2023-06-03T08:23:33.007Z,94515.00
2023-06-03T08:24:32.973Z,94515.00
2023-06-03T08:25:32.983Z,94513.00
2023-06-03T08:26:32.989Z,94511.00
2023-06-03T08:27:33.016Z,94511.00
2023-06-03T08:28:33.047Z,94511.00
2023-06-03T08:29:33.029Z,94509.00
2023-06-03T08:30:33.061Z,94507.00
2023-06-03T08:31:33.095Z,94505.00
2023-06-03T08:32:33.143Z,94509.00
2023-06-03T08:33:33.096Z,94505.00
2023-06-03T08:34:33.103Z,94502.00
2023-06-03T08:35:33.116Z,94502.00
2023-06-03T08:36:33.151Z,94500.00
2023-06-03T08:37:33.156Z,94502.00
2023-06-03T08:38:33.167Z,94500.00
2023-06-03T08:39:33.180Z,94502.00
2023-06-03T08:40:33.196Z,94500.00
2023-06-03T08:41:33.214Z,94498.00
2023-06-03T08:42:33.216Z,94498.00
2023-06-03T08:43:33.972Z,94494.00
2023-06-03T08:44:33.237Z,94494.00
2023-06-03T08:45:33.255Z,94496.00
2023-06-03T08:46:33.295Z,94494.00
2023-06-03T08:47:33.309Z,94488.00
2023-06-03T08:48:33.282Z,94488.00
2023-06-03T08:49:33.286Z,94488.00
2023-06-03T08:50:33.296Z,94486.00
2023-06-03T08:51:33.314Z,94486.00
2023-06-03T08:52:33.344Z,94482.00
2023-06-03T08:53:33.361Z,94482.00
2023-06-03T08:54:33.376Z,94482.00
2023-06-03T08:55:33.499Z,94482.00
2023-06-03T08:56:33.400Z,94482.00
2023-06-03T08:57:33.390Z,94480.00
2023-06-03T08:58:33.415Z,94478.00
2023-06-03T08:59:33.419Z,94478.00
2023-06-03T09:00:33.487Z,94480.00
2023-06-03T09:01:33.492Z,94480.00
2023-06-03T09:02:33.538Z,94478.00
2023-06-03T09:03:33.557Z,94476.00
2023-06-03T09:04:33.463Z,94476.00
2023-06-03T09:05:33.475Z,94474.00
2023-06-03T09:06:33.500Z,94472.00
2023-06-03T09:07:33.488Z,94468.00
2023-06-03T09:08:33.511Z,94468.00
2023-06-03T09:09:33.516Z,94470.00
2023-06-03T09:10:33.548Z,94466.00
2023-06-03T09:11:33.546Z,94466.00
2023-06-03T09:12:33.553Z,94464.00
2023-06-03T09:13:33.557Z,94464.00
2023-06-03T09:14:33.567Z,94464.00
2023-06-03T09:15:33.680Z,94464.00
2023-06-03T09:16:33.631Z,94464.00
2023-06-03T09:17:33.614Z,94462.00
2023-06-03T09:18:33.620Z,94462.00
2023-06-03T09:19:33.621Z,94462.00
2023-06-03T09:20:33.645Z,94460.00
2023-06-03T09:21:33.634Z,94458.00
2023-06-03T09:22:33.684Z,94458.00
2023-06-03T09:23:33.670Z,94462.00
2023-06-03T09:24:33.697Z,94457.00
2023-06-03T09:25:33.672Z,94455.00
2023-06-03T09:26:33.674Z,94453.00
2023-06-03T09:27:33.677Z,94449.00
2023-06-03T09:28:33.694Z,94453.00
2023-06-03T09:29:33.704Z,94453.00
2023-06-03T09:30:33.707Z,94451.00
2023-06-03T09:31:33.726Z,94451.00
2023-06-03T09:32:33.736Z,94451.00
2023-06-03T09:33:33.706Z,94453.00
2023-06-03T09:34:33.721Z,94453.00
2023-06-03T09:35:33.727Z,94451.00
2023-06-03T09:36:33.733Z,94451.00
2023-06-03T09:37:33.772Z,94451.00
2023-06-03T09:38:33.729Z,94449.00
2023-06-03T09:39:33.750Z,94447.00
2023-06-03T09:40:33.739Z,94447.00
2023-06-03T09:41:33.735Z,94443.00
2023-06-03T09:42:33.814Z,94447.00
2023-06-03T09:43:33.742Z,94447.00
2023-06-03T09:44:33.740Z,94445.00
2023-06-03T09:45:33.746Z,94447.00
2023-06-03T09:46:33.903Z,94443.00
2023-06-03T09:47:33.785Z,94445.00
2023-06-03T09:48:33.783Z,94443.00
2023-06-03T09:49:49.828Z,94443.00
2023-06-03T09:50:34.784Z,94443.00
2023-06-03T09:51:33.785Z,94441.00
2023-06-03T09:52:33.842Z,94439.00
2023-06-03T09:53:33.756Z,94437.00
2023-06-03T09:54:33.761Z,94435.00
2023-06-03T09:55:33.829Z,94437.00
2023-06-03T09:56:33.739Z,94433.00
2023-06-03T09:57:33.764Z,94437.00
2023-06-03T09:58:33.733Z,94435.00
2023-06-03T09:59:33.720Z,94435.00
2023-06-03T10:00:33.726Z,94435.00
2023-06-03T10:01:33.751Z,94435.00
2023-06-03T10:02:33.802Z,94437.00
2023-06-03T10:03:33.709Z,94435.00
2023-06-03T10:04:33.686Z,94435.00
2023-06-03T10:05:33.679Z,94433.00
2023-06-03T10:06:33.675Z,94435.00
2023-06-03T10:07:33.703Z,94433.00
2023-06-03T10:08:33.736Z,94433.00
2023-06-03T10:09:33.756Z,94431.00
2023-06-03T10:10:33.775Z,94429.00
2023-06-03T10:11:33.811Z,94427.00
2023-06-03T10:12:33.874Z,94429.00
2023-06-03T10:13:33.887Z,94425.00
2023-06-03T10:14:33.940Z,94425.00
2023-06-03T10:15:34.002Z,94427.00
2023-06-03T10:16:34.099Z,94425.00
2023-06-03T10:17:37.379Z,94421.00
2023-06-03T10:18:34.042Z,94421.00
2023-06-03T10:19:34.047Z,94419.00
2023-06-03T10:20:34.029Z,94416.00
2023-06-03T10:21:34.032Z,94411.00
2023-06-03T10:22:34.036Z,94411.00
2023-06-03T10:23:34.057Z,94411.00
2023-06-03T10:24:34.017Z,94411.00
2023-06-03T10:25:33.989Z,94411.00
2023-06-03T10:26:33.986Z,94408.00
2023-06-03T10:27:33.978Z,94408.00
2023-06-03T10:28:33.982Z,94411.00
2023-06-03T10:29:33.993Z,94408.00
2023-06-03T10:30:34.051Z,94408.00
2023-06-03T10:31:34.036Z,94406.00
2023-06-03T10:32:33.979Z,94404.00
2023-06-03T10:33:33.959Z,94402.00
2023-06-03T10:34:33.939Z,94398.00
2023-06-03T10:35:33.945Z,94402.00
2023-06-03T10:36:33.925Z,94400.00
2023-06-03T10:37:33.927Z,94400.00
2023-06-03T10:38:34.137Z,94396.00
2023-06-03T10:39:33.908Z,94396.00
2023-06-03T10:40:33.902Z,94388.00
2023-06-03T10:41:33.900Z,94396.00
2023-06-03T10:42:33.880Z,94384.00
2023-06-03T10:43:33.883Z,94382.00
2023-06-03T10:44:33.869Z,94380.00
2023-06-03T10:45:33.905Z,94380.00
2023-06-03T10:46:33.981Z,94376.00
2023-06-03T10:47:33.885Z,94378.00
2023-06-03T10:48:33.868Z,94372.00
2023-06-03T10:49:33.879Z,94374.00
2023-06-03T10:50:33.925Z,94370.00
2023-06-03T10:51:33.998Z,94370.00
2023-06-03T10:52:34.036Z,94372.00
2023-06-03T10:53:34.134Z,94368.00
2023-06-03T10:54:34.177Z,94365.00
2023-06-03T10:55:34.283Z,94366.00
2023-06-03T10:56:34.280Z,94365.00
2023-06-03T10:57:34.335Z,94363.00
2023-06-03T10:58:34.402Z,94363.00
2023-06-03T10:59:34.435Z,94359.00
2023-06-03T11:00:34.499Z,94363.00
2023-06-03T11:01:34.600Z,94361.00
2023-06-03T11:02:34.621Z,94363.00
2023-06-03T11:03:34.674Z,94361.00
2023-06-03T11:04:34.723Z,94355.00
2023-06-03T11:05:34.764Z,94351.00
2023-06-03T11:06:34.822Z,94353.00
2023-06-03T11:07:34.878Z,94355.00
2023-06-03T11:08:34.941Z,94353.00
2023-06-03T11:09:34.981Z,94351.00
2023-06-03T11:10:35.043Z,94349.00
2023-06-03T11:11:35.079Z,94349.00
2023-06-03T11:12:35.141Z,94347.00
2023-06-03T11:13:35.218Z,94347.00
2023-06-03T11:14:35.267Z,94343.00
2023-06-03T11:15:35.298Z,94345.00
2023-06-03T11:16:35.414Z,94341.00
2023-06-03T11:17:35.463Z,94341.00
2023-06-03T11:18:35.478Z,94343.00
2023-06-03T11:19:35.546Z,94343.00
2023-06-03T11:20:35.582Z,94343.00
2023-06-03T11:21:35.640Z,94339.00
2023-06-03T11:22:35.737Z,94337.00
2023-06-03T11:23:35.788Z,94341.00
2023-06-03T11:24:35.850Z,94337.00
2023-06-03T11:25:35.866Z,94337.00
2023-06-03T11:26:35.934Z,94333.00
2023-06-03T11:27:35.992Z,94335.00
2023-06-03T11:28:36.237Z,94333.00
2023-06-03T11:29:36.095Z,94335.00
2023-06-03T11:30:36.133Z,94335.00
2023-06-03T11:31:36.278Z,94331.00
2023-06-03T11:32:36.261Z,94329.00
2023-06-03T11:33:36.305Z,94331.00
2023-06-03T11:34:36.352Z,94325.00
2023-06-03T11:35:36.414Z,94327.00
2023-06-03T11:36:36.463Z,94327.00
2023-06-03T11:37:36.555Z,94325.00
2023-06-03T11:38:36.572Z,94325.00
2023-06-03T11:39:36.627Z,94321.00
2023-06-03T11:40:36.693Z,94321.00
2023-06-03T11:41:36.728Z,94323.00
2023-06-03T11:42:36.797Z,94323.00
2023-06-03T11:43:36.841Z,94321.00
2023-06-03T11:44:36.877Z,94316.00